KMYR/MYR METAR and TAF weather

Enter ICAO airport designator
Station Type Date Time Source
KMYR METAR 2018/12/10 01:56 UTC NOAA

KMYR 100156Z 34011KT 10SM OVC013 05/03 A2990 RMK AO2 SLP126 T00500028


Station Type Date Time Source
KMYR Decoded METAR 2018/12/10 01:56 UTC NOAA

Myrtle Beach Air Force Base, SC, United States (KMYR) 33-41N 078-56W 8M
Dec 09, 2018 - 08:56 PM EST / 2018.12.10 0156 UTC
Wind: from the NNW (340 degrees) at 13 MPH (11 KT):0
Visibility: 10 mile(s):0
Sky conditions: overcast
Temperature: 41.0 F (5.0 C)
Dew Point: 37.0 F (2.8 C)
Relative Humidity: 85%
Pressure (altimeter): 29.9 in. Hg (1012 hPa)
ob: KMYR 100156Z 34011KT 10SM OVC013 05/03 A2990 RMK AO2 SLP126 T00500028
cycle: 2

Station Type Date Time Source
KMYR TAF 2018/12/09 22:21 UTC NOAA

TAF
AMD KMYR 092218Z 0922/1018 33020G28KT P6SM BKN010 OVC030
FM100300 02014KT P6SM VCSH OVC007
FM100600 01011KT 6SM -RA OVC007
FM101200 01011G18KT 6SM -RA OVC007


Example: see airport list